Wetterdaten: Freitag, 06.08.2010
Datum Zeit Temp. A. Feuchte A. Luftdruck Regen Wind Richtung Richtung Sonnenschein UV Solar Windben
06.08.2010 00:00 16,2 C 75 % 1012,4 hPa 0,0 mm 1,6 km/h (1 Bft) W-NW 292 0 min 0 UV-I 0 W/m 6,4 km/h (2 Bft)
06.08.2010 00:10 15,9 C 77 % 1012,5 hPa 0,0 mm 0,0 km/h (0 Bft) W 270 0 min 0 UV-I 0 W/m 4,8 km/h (1 Bft)
06.08.2010 00:20 15,8 C 77 % 1012,5 hPa 0,0 mm 1,6 km/h (1 Bft) W 270 0 min 0 UV-I 0 W/m 8,0 km/h (2 Bft)
06.08.2010 00:30 15,6 C 78 % 1012,5 hPa 0,0 mm 0,0 km/h (0 Bft) W-NW 292 0 min 0 UV-I 0 W/m 6,4 km/h (2 Bft)
06.08.2010 00:40 15,4 C 79 % 1012,6 hPa 0,0 mm 0,0 km/h (0 Bft) W-NW 292 0 min 0 UV-I 0 W/m 4,8 km/h (1 Bft)
06.08.2010 00:50 15,4 C 80 % 1012,7 hPa 0,0 mm 0,0 km/h (0 Bft) W-NW 292 0 min 0 UV-I 0 W/m 4,8 km/h (1 Bft)
06.08.2010 01:00 15,3 C 80 % 1012,7 hPa 0,0 mm 1,6 km/h (1 Bft) W-NW 292 0 min 0 UV-I 0 W/m 4,8 km/h (1 Bft)
06.08.2010 01:10 15,3 C 80 % 1012,7 hPa 0,0 mm 1,6 km/h (1 Bft) W-SW 247 0 min 0 UV-I 0 W/m 4,8 km/h (1 Bft)
06.08.2010 01:20 15,3 C 81 % 1012,7 hPa 0,0 mm 1,6 km/h (1 Bft) W-SW 247 0 min 0 UV-I 0 W/m 8,0 km/h (2 Bft)
06.08.2010 01:30 15,3 C 81 % 1012,8 hPa 0,0 mm 0,0 km/h (0 Bft) W 270 0 min 0 UV-I 0 W/m 3,2 km/h (1 Bft)
06.08.2010 01:40 15,1 C 81 % 1012,8 hPa 0,0 mm 0,0 km/h (0 Bft) W 270 0 min 0 UV-I 0 W/m 1,6 km/h (1 Bft)
06.08.2010 01:50 15,1 C 82 % 1012,8 hPa 0,0 mm 0,0 km/h (0 Bft) W 270 0 min 0 UV-I 0 W/m 1,6 km/h (1 Bft)
06.08.2010 02:00 14,9 C 83 % 1012,9 hPa 0,0 mm 0,0 km/h (0 Bft) W 270 0 min 0 UV-I 0 W/m 1,6 km/h (1 Bft)
06.08.2010 02:10 14,8 C 83 % 1012,9 hPa 0,0 mm 0,0 km/h (0 Bft) W 270 0 min 0 UV-I 0 W/m 1,6 km/h (1 Bft)
06.08.2010 02:20 14,6 C 84 % 1013,0 hPa 0,0 mm 0,0 km/h (0 Bft) W 270 0 min 0 UV-I 0 W/m 1,6 km/h (1 Bft)
06.08.2010 02:30 14,5 C 84 % 1013,1 hPa 0,0 mm 0,0 km/h (0 Bft) W 270 0 min 0 UV-I 0 W/m 1,6 km/h (1 Bft)
06.08.2010 02:40 14,4 C 85 % 1013,2 hPa 0,0 mm 0,0 km/h (0 Bft) W 270 0 min 0 UV-I 0 W/m 4,8 km/h (1 Bft)
06.08.2010 02:50 14,4 C 85 % 1013,2 hPa 0,0 mm 0,0 km/h (0 Bft) W 270 0 min 0 UV-I 0 W/m 4,8 km/h (1 Bft)
06.08.2010 03:00 14,3 C 85 % 1013,2 hPa 0,0 mm 0,0 km/h (0 Bft) W-SW 247 0 min 0 UV-I 0 W/m 8,0 km/h (2 Bft)
06.08.2010 03:10 14,3 C 86 % 1013,2 hPa 0,0 mm 1,6 km/h (1 Bft) W-SW 247 0 min 0 UV-I 0 W/m 8,0 km/h (2 Bft)
06.08.2010 03:20 14,2 C 86 % 1013,2 hPa 0,0 mm 1,6 km/h (1 Bft) W-SW 247 0 min 0 UV-I 0 W/m 6,4 km/h (2 Bft)
06.08.2010 03:30 14,1 C 86 % 1013,3 hPa 0,0 mm 0,0 km/h (0 Bft) W-SW 247 0 min 0 UV-I 0 W/m 3,2 km/h (1 Bft)
06.08.2010 03:40 14,1 C 86 % 1013,3 hPa 0,0 mm 0,0 km/h (0 Bft) W-SW 247 0 min 0 UV-I 0 W/m 1,6 km/h (1 Bft)
06.08.2010 03:50 14,1 C 87 % 1013,3 hPa 0,0 mm 0,0 km/h (0 Bft) W-SW 247 0 min 0 UV-I 0 W/m 3,2 km/h (1 Bft)
06.08.2010 04:00 13,9 C 87 % 1013,3 hPa 0,0 mm 0,0 km/h (0 Bft) W-SW 247 0 min 0 UV-I 0 W/m 4,8 km/h (1 Bft)
06.08.2010 04:10 13,8 C 87 % 1013,5 hPa 0,0 mm 0,0 km/h (0 Bft) W-SW 247 0 min 0 UV-I 0 W/m 3,2 km/h (1 Bft)
06.08.2010 04:20 13,7 C 87 % 1013,5 hPa 0,0 mm 0,0 km/h (0 Bft) W-SW 247 0 min 0 UV-I 0 W/m 3,2 km/h (1 Bft)
06.08.2010 04:30 13,7 C 88 % 1013,5 hPa 0,0 mm 0,0 km/h (0 Bft) W-SW 247 0 min 0 UV-I 0 W/m 4,8 km/h (1 Bft)
06.08.2010 04:40 13,7 C 88 % 1013,6 hPa 0,0 mm 0,0 km/h (0 Bft) W-SW 247 0 min 0 UV-I 0 W/m 3,2 km/h (1 Bft)
06.08.2010 04:50 13,7 C 88 % 1013,7 hPa 0,0 mm 0,0 km/h (0 Bft) W-SW 247 0 min 0 UV-I 0 W/m 1,6 km/h (1 Bft)
06.08.2010 05:00 13,6 C 88 % 1013,8 hPa 0,0 mm 0,0 km/h (0 Bft) W-SW 247 0 min 0 UV-I 0 W/m 3,2 km/h (1 Bft)
06.08.2010 05:10 13,5 C 88 % 1013,9 hPa 0,0 mm 0,0 km/h (0 Bft) W-SW 247 0 min 0 UV-I 0 W/m 4,8 km/h (1 Bft)
06.08.2010 05:20 13,5 C 88 % 1013,9 hPa 0,0 mm 0,0 km/h (0 Bft) W-SW 247 0 min 0 UV-I 0 W/m 4,8 km/h (1 Bft)
06.08.2010 05:30 13,5 C 88 % 1014,2 hPa 0,0 mm 0,0 km/h (0 Bft) W-SW 247 0 min 0 UV-I 0 W/m 1,6 km/h (1 Bft)
06.08.2010 05:40 13,5 C 89 % 1014,3 hPa 0,0 mm 0,0 km/h (0 Bft) W-SW 247 0 min 0 UV-I 0 W/m 1,6 km/h (1 Bft)
06.08.2010 05:50 13,5 C 89 % 1014,4 hPa 0,0 mm 0,0 km/h (0 Bft) N 0 0 min 0 UV-I 0 W/m 0,0 km/h (0 Bft)
06.08.2010 06:00 13,6 C 89 % 1014,5 hPa 0,0 mm 0,0 km/h (0 Bft) N 0 0 min 0 UV-I 0 W/m 0,0 km/h (0 Bft)
06.08.2010 06:10 13,5 C 89 % 1014,7 hPa 0,0 mm 0,0 km/h (0 Bft) W-SW 247 0 min 0 UV-I 0 W/m 1,6 km/h (1 Bft)
06.08.2010 06:20 13,5 C 89 % 1014,9 hPa 0,0 mm 0,0 km/h (0 Bft) W-SW 247 0 min 0 UV-I 0 W/m 3,2 km/h (1 Bft)
06.08.2010 06:30 13,5 C 89 % 1015,0 hPa 0,0 mm 0,0 km/h (0 Bft) W-SW 247 0 min 0 UV-I 5 W/m 1,6 km/h (1 Bft)
06.08.2010 06:40 13,5 C 89 % 1015,0 hPa 0,0 mm 0,0 km/h (0 Bft) W-SW 247 0 min 0 UV-I 9 W/m 4,8 km/h (1 Bft)
06.08.2010 06:50 13,4 C 89 % 1015,0 hPa 0,0 mm 0,0 km/h (0 Bft) W 270 0 min 0 UV-I 12 W/m 4,8 km/h (1 Bft)
06.08.2010 07:00 13,5 C 90 % 1015,0 hPa 0,0 mm 0,0 km/h (0 Bft) NW 315 0 min 0 UV-I 21 W/m 3,2 km/h (1 Bft)
06.08.2010 07:10 13,5 C 90 % 1015,0 hPa 0,0 mm 0,0 km/h (0 Bft) NO 45 0 min 0 UV-I 21 W/m 3,2 km/h (1 Bft)
06.08.2010 07:20 13,6 C 90 % 1015,3 hPa 0,0 mm 0,0 km/h (0 Bft) NO 45 0 min 0 UV-I 47 W/m 4,8 km/h (1 Bft)
06.08.2010 07:30 13,6 C 90 % 1015,2 hPa 0,0 mm 0,0 km/h (0 Bft) NO 45 0 min 0 UV-I 69 W/m 3,2 km/h (1 Bft)
06.08.2010 07:40 13,7 C 90 % 1015,3 hPa 0,0 mm 0,0 km/h (0 Bft) N-NW 337 0 min 0 UV-I 76 W/m 1,6 km/h (1 Bft)
06.08.2010 07:50 13,9 C 90 % 1015,4 hPa 0,0 mm 0,0 km/h (0 Bft) N-NW 337 0 min 0 UV-I 91 W/m 1,6 km/h (1 Bft)
06.08.2010 08:00 14,1 C 89 % 1015,4 hPa 0,0 mm 0,0 km/h (0 Bft) O 101 0 min 0 UV-I 85 W/m 1,6 km/h (1 Bft)
06.08.2010 08:10 14,2 C 89 % 1015,5 hPa 0,0 mm 0,0 km/h (0 Bft) N-NW 337 0 min 1 UV-I 134 W/m 4,8 km/h (1 Bft)
06.08.2010 08:20 14,3 C 88 % 1015,6 hPa 0,0 mm 1,6 km/h (1 Bft) N-NW 337 10 min 1 UV-I 257 W/m 4,8 km/h (1 Bft)
06.08.2010 08:30 14,6 C 87 % 1015,7 hPa 0,0 mm 1,6 km/h (1 Bft) N-NO 22 10 min 1 UV-I 271 W/m 8,0 km/h (2 Bft)
06.08.2010 08:40 14,7 C 87 % 1015,8 hPa 0,0 mm 1,6 km/h (1 Bft) N-NO 22 10 min 1 UV-I 359 W/m 6,4 km/h (2 Bft)
06.08.2010 08:50 15,0 C 86 % 1015,9 hPa 0,0 mm 1,6 km/h (1 Bft) W-NW 292 10 min 1 UV-I 353 W/m 6,4 km/h (2 Bft)
06.08.2010 09:00 15,2 C 86 % 1015,9 hPa 0,0 mm 0,0 km/h (0 Bft) W-NW 292 10 min 2 UV-I 388 W/m 3,2 km/h (1 Bft)
06.08.2010 09:10 15,6 C 84 % 1016,0 hPa 0,0 mm 1,6 km/h (1 Bft) W-NW 292 10 min 2 UV-I 441 W/m 6,4 km/h (2 Bft)
06.08.2010 09:20 15,7 C 83 % 1016,0 hPa 0,0 mm 1,6 km/h (1 Bft) NW 315 10 min 2 UV-I 432 W/m 6,4 km/h (2 Bft)
06.08.2010 09:30 16,0 C 82 % 1016,1 hPa 0,0 mm 1,6 km/h (1 Bft) NW 315 10 min 2 UV-I 468 W/m 6,4 km/h (2 Bft)
06.08.2010 09:40 16,2 C 80 % 1016,1 hPa 0,0 mm 1,6 km/h (1 Bft) NW 315 10 min 2 UV-I 497 W/m 9,7 km/h (2 Bft)
06.08.2010 09:50 16,7 C 80 % 1016,1 hPa 0,0 mm 1,6 km/h (1 Bft) NW 315 10 min 3 UV-I 615 W/m 6,4 km/h (2 Bft)
06.08.2010 10:00 17,2 C 76 % 1016,1 hPa 0,0 mm 1,6 km/h (1 Bft) NW 315 10 min 3 UV-I 638 W/m 11,3 km/h (2 Bft)
06.08.2010 10:10 17,2 C 76 % 1016,1 hPa 0,0 mm 1,6 km/h (1 Bft) W-NW 292 10 min 3 UV-I 657 W/m 9,7 km/h (2 Bft)
06.08.2010 10:20 17,9 C 71 % 1016,2 hPa 0,0 mm 3,2 km/h (1 Bft) N 360 10 min 3 UV-I 700 W/m 9,7 km/h (2 Bft)
06.08.2010 10:30 17,7 C 72 % 1016,2 hPa 0,0 mm 1,6 km/h (1 Bft) W-NW 292 0 min 2 UV-I 179 W/m 8,0 km/h (2 Bft)
06.08.2010 10:40 17,2 C 72 % 1016,2 hPa 0,0 mm 1,6 km/h (1 Bft) N 360 10 min 4 UV-I 689 W/m 4,8 km/h (1 Bft)
06.08.2010 10:50 17,9 C 69 % 1016,2 hPa 0,0 mm 0,0 km/h (0 Bft) N-NW 337 10 min 4 UV-I 715 W/m 4,8 km/h (1 Bft)
06.08.2010 11:00 18,8 C 64 % 1016,2 hPa 0,0 mm 3,2 km/h (1 Bft) W-NW 292 10 min 4 UV-I 737 W/m 11,3 km/h (2 Bft)
06.08.2010 11:10 19,2 C 63 % 1016,3 hPa 0,0 mm 3,2 km/h (1 Bft) W-NW 292 10 min 4 UV-I 759 W/m 9,7 km/h (2 Bft)
06.08.2010 11:20 19,2 C 63 % 1016,2 hPa 0,0 mm 4,8 km/h (1 Bft) W 270 10 min 5 UV-I 805 W/m 14,5 km/h (3 Bft)
06.08.2010 11:30 19,3 C 62 % 1016,1 hPa 0,0 mm 3,2 km/h (1 Bft) NO 45 10 min 5 UV-I 828 W/m 14,5 km/h (3 Bft)
06.08.2010 11:40 19,4 C 60 % 1016,2 hPa 0,0 mm 3,2 km/h (1 Bft) NW 315 10 min 5 UV-I 795 W/m 16,1 km/h (3 Bft)
06.08.2010 11:50 19,1 C 60 % 1016,1 hPa 0,0 mm 1,6 km/h (1 Bft) SW 225 10 min 5 UV-I 877 W/m 8,0 km/h (2 Bft)
06.08.2010 12:00 19,8 C 58 % 1016,2 hPa 0,0 mm 4,8 km/h (1 Bft) W 270 10 min 5 UV-I 798 W/m 17,7 km/h (3 Bft)
06.08.2010 12:10 19,1 C 62 % 1016,2 hPa 0,0 mm 1,6 km/h (1 Bft) N 360 0 min 4 UV-I 404 W/m 8,0 km/h (2 Bft)
06.08.2010 12:20 19,6 C 57 % 1016,2 hPa 0,0 mm 3,2 km/h (1 Bft) N 360 10 min 5 UV-I 550 W/m 11,3 km/h (2 Bft)
06.08.2010 12:30 20,1 C 53 % 1016,2 hPa 0,0 mm 3,2 km/h (1 Bft) W-SW 247 10 min 6 UV-I 1037 W/m 9,7 km/h (2 Bft)
06.08.2010 12:40 20,3 C 55 % 1016,0 hPa 0,0 mm 3,2 km/h (1 Bft) NW 315 10 min 5 UV-I 490 W/m 9,7 km/h (2 Bft)
06.08.2010 12:50 20,1 C 54 % 1016,1 hPa 0,0 mm 1,6 km/h (1 Bft) W-NW 292 10 min 6 UV-I 1069 W/m 9,7 km/h (2 Bft)
06.08.2010 13:00 20,4 C 54 % 1016,1 hPa 0,0 mm 3,2 km/h (1 Bft) W-SW 247 10 min 4 UV-I 956 W/m 12,9 km/h (3 Bft)
06.08.2010 13:10 20,2 C 54 % 1016,1 hPa 0,0 mm 3,2 km/h (1 Bft) N-NW 337 0 min 5 UV-I 380 W/m 9,7 km/h (2 Bft)
06.08.2010 13:20 20,8 C 51 % 1016,1 hPa 0,0 mm 3,2 km/h (1 Bft) W-NW 292 10 min 5 UV-I 888 W/m 9,7 km/h (2 Bft)
06.08.2010 13:30 20,6 C 50 % 1016,0 hPa 0,0 mm 3,2 km/h (1 Bft) W-NW 292 10 min 5 UV-I 552 W/m 9,7 km/h (2 Bft)
06.08.2010 13:40 20,8 C 50 % 1016,0 hPa 0,0 mm 4,8 km/h (1 Bft) S-SW 202 10 min 5 UV-I 629 W/m 16,1 km/h (3 Bft)
06.08.2010 13:50 21,2 C 51 % 1016,0 hPa 0,0 mm 1,6 km/h (1 Bft) W-NW 292 0 min 6 UV-I 432 W/m 9,7 km/h (2 Bft)
06.08.2010 14:00 21,1 C 49 % 1016,1 hPa 0,0 mm 1,6 km/h (1 Bft) NW 315 10 min 4 UV-I 575 W/m 6,4 km/h (2 Bft)
06.08.2010 14:10 20,9 C 49 % 1016,1 hPa 0,0 mm 1,6 km/h (1 Bft) N 360 10 min 4 UV-I 452 W/m 8,0 km/h (2 Bft)
06.08.2010 14:20 20,9 C 48 % 1016,1 hPa 0,0 mm 3,2 km/h (1 Bft) NW 315 10 min 4 UV-I 478 W/m 14,5 km/h (3 Bft)
06.08.2010 14:30 20,9 C 50 % 1016,1 hPa 0,0 mm 1,6 km/h (1 Bft) NW 315 10 min 4 UV-I 446 W/m 6,4 km/h (2 Bft)
06.08.2010 14:40 21,1 C 49 % 1016,3 hPa 0,0 mm 1,6 km/h (1 Bft) N-NW 337 0 min 4 UV-I 387 W/m 9,7 km/h (2 Bft)
06.08.2010 14:50 21,3 C 49 % 1016,3 hPa 0,0 mm 1,6 km/h (1 Bft) W 270 10 min 5 UV-I 728 W/m 9,7 km/h (2 Bft)
06.08.2010 15:00 22,1 C 45 % 1016,2 hPa 0,0 mm 3,2 km/h (1 Bft) W 270 10 min 5 UV-I 742 W/m 16,1 km/h (3 Bft)
06.08.2010 15:10 22,2 C 43 % 1016,2 hPa 0,0 mm 1,6 km/h (1 Bft) W 270 10 min 5 UV-I 838 W/m 8,0 km/h (2 Bft)
06.08.2010 15:20 22,4 C 45 % 1016,4 hPa 0,0 mm 1,6 km/h (1 Bft) W 270 10 min 4 UV-I 599 W/m 8,0 km/h (2 Bft)
06.08.2010 15:30 21,8 C 46 % 1016,3 hPa 0,0 mm 3,2 km/h (1 Bft) W-SW 247 10 min 3 UV-I 448 W/m 12,9 km/h (3 Bft)
06.08.2010 15:40 21,9 C 47 % 1016,4 hPa 0,0 mm 1,6 km/h (1 Bft) N-NO 22 10 min 4 UV-I 628 W/m 8,0 km/h (2 Bft)
06.08.2010 15:50 22,3 C 45 % 1016,3 hPa 0,0 mm 1,6 km/h (1 Bft) N-NO 22 10 min 3 UV-I 545 W/m 9,7 km/h (2 Bft)
06.08.2010 16:00 22,5 C 45 % 1016,3 hPa 0,0 mm 2,5 km/h (1 Bft) W 273 10 min 3 UV-I 473 W/m 6,4 km/h (2 Bft)
06.08.2010 16:10 22,3 C 46 % 1016,4 hPa 0,0 mm 1,2 km/h (1 Bft) W 264 10 min 3 UV-I 426 W/m 6,4 km/h (2 Bft)
06.08.2010 16:20 21,9 C 47 % 1016,4 hPa 0,0 mm 3,1 km/h (1 Bft) N-NO 13 10 min 3 UV-I 400 W/m 9,7 km/h (2 Bft)
06.08.2010 16:30 22,9 C 47 % 1016,3 hPa 0,0 mm 1,1 km/h (1 Bft) N 355 10 min 3 UV-I 732 W/m 6,4 km/h (2 Bft)
06.08.2010 16:40 23,2 C 42 % 1016,2 hPa 0,0 mm 5,2 km/h (1 Bft) W-SW 242 10 min 3 UV-I 740 W/m 16,1 km/h (3 Bft)
06.08.2010 16:50 23,2 C 43 % 1016,2 hPa 0,0 mm 6,3 km/h (2 Bft) SW 215 10 min 3 UV-I 648 W/m 16,1 km/h (3 Bft)
06.08.2010 17:00 22,3 C 44 % 1016,3 hPa 0,0 mm 4,6 km/h (1 Bft) W-SW 257 0 min 2 UV-I 279 W/m 11,3 km/h (2 Bft)
06.08.2010 17:10 22,8 C 43 % 1016,3 hPa 0,0 mm 3,2 km/h (1 Bft) W 277 10 min 2 UV-I 420 W/m 9,7 km/h (2 Bft)
06.08.2010 17:20 22,7 C 45 % 1016,2 hPa 0,0 mm 3,5 km/h (1 Bft) W 279 10 min 2 UV-I 324 W/m 11,3 km/h (2 Bft)
06.08.2010 17:30 23,2 C 43 % 1016,3 hPa 0,0 mm 3,5 km/h (1 Bft) W-SW 244 10 min 2 UV-I 573 W/m 12,9 km/h (3 Bft)
06.08.2010 17:40 22,6 C 43 % 1016,3 hPa 0,0 mm 3,1 km/h (1 Bft) NW 313 10 min 2 UV-I 348 W/m 8,0 km/h (2 Bft)
06.08.2010 17:50 22,0 C 46 % 1016,2 hPa 0,0 mm 3,3 km/h (1 Bft) W 279 0 min 1 UV-I 213 W/m 11,3 km/h (2 Bft)
06.08.2010 18:00 22,4 C 46 % 1016,1 hPa 0,0 mm 1,7 km/h (1 Bft) NW 319 10 min 1 UV-I 311 W/m 11,3 km/h (2 Bft)
06.08.2010 18:10 22,4 C 46 % 1016,3 hPa 0,0 mm 3,5 km/h (1 Bft) W 261 10 min 1 UV-I 368 W/m 14,5 km/h (3 Bft)
06.08.2010 18:20 22,3 C 46 % 1016,2 hPa 0,0 mm 4,8 km/h (1 Bft) W 270 10 min 1 UV-I 221 W/m 12,9 km/h (3 Bft)
06.08.2010 18:30 22,1 C 46 % 1016,2 hPa 0,0 mm 1,6 km/h (1 Bft) W-NW 292 10 min 1 UV-I 415 W/m 9,7 km/h (2 Bft)
06.08.2010 18:40 22,5 C 45 % 1016,3 hPa 0,0 mm 3,2 km/h (1 Bft) W 270 10 min 1 UV-I 364 W/m 12,9 km/h (3 Bft)
06.08.2010 18:50 22,4 C 45 % 1016,3 hPa 0,0 mm 4,8 km/h (1 Bft) W 270 10 min 1 UV-I 341 W/m 11,3 km/h (2 Bft)
06.08.2010 19:00 22,2 C 45 % 1016,3 hPa 0,0 mm 4,8 km/h (1 Bft) W 270 10 min 1 UV-I 302 W/m 11,3 km/h (2 Bft)
06.08.2010 19:10 21,8 C 47 % 1016,4 hPa 0,0 mm 3,2 km/h (1 Bft) W 270 10 min 1 UV-I 234 W/m 14,5 km/h (3 Bft)
06.08.2010 19:20 21,9 C 46 % 1016,4 hPa 0,0 mm 3,2 km/h (1 Bft) W-NW 292 10 min 1 UV-I 218 W/m 11,3 km/h (2 Bft)
06.08.2010 19:30 21,9 C 46 % 1016,5 hPa 0,0 mm 3,2 km/h (1 Bft) W 270 10 min 1 UV-I 195 W/m 9,7 km/h (2 Bft)
06.08.2010 19:40 21,9 C 46 % 1016,6 hPa 0,0 mm 1,6 km/h (1 Bft) W 270 10 min 1 UV-I 193 W/m 9,7 km/h (2 Bft)
06.08.2010 19:50 21,7 C 46 % 1016,6 hPa 0,0 mm 1,6 km/h (1 Bft) W-NW 292 10 min 0 UV-I 160 W/m 8,0 km/h (2 Bft)
06.08.2010 20:00 21,3 C 48 % 1016,8 hPa 0,0 mm 1,6 km/h (1 Bft) W 270 0 min 0 UV-I 65 W/m 8,0 km/h (2 Bft)
06.08.2010 20:10 21,1 C 48 % 1016,7 hPa 0,0 mm 1,6 km/h (1 Bft) W-NW 292 0 min 0 UV-I 47 W/m 9,7 km/h (2 Bft)
06.08.2010 20:20 20,8 C 49 % 1016,9 hPa 0,0 mm 1,6 km/h (1 Bft) NW 315 0 min 0 UV-I 33 W/m 6,4 km/h (2 Bft)
06.08.2010 20:30 20,5 C 50 % 1017,0 hPa 0,0 mm 0,0 km/h (0 Bft) NW 315 0 min 0 UV-I 30 W/m 3,2 km/h (1 Bft)
06.08.2010 20:40 20,3 C 52 % 1017,0 hPa 0,0 mm 0,0 km/h (0 Bft) NW 315 0 min 0 UV-I 26 W/m 3,2 km/h (1 Bft)
06.08.2010 20:50 20,0 C 52 % 1017,1 hPa 0,0 mm 0,0 km/h (0 Bft) NW 315 10 min 0 UV-I 19 W/m 1,6 km/h (1 Bft)
06.08.2010 21:00 19,8 C 53 % 1017,1 hPa 0,0 mm 0,0 km/h (0 Bft) NW 315 0 min 0 UV-I 12 W/m 1,6 km/h (1 Bft)
06.08.2010 21:10 19,6 C 55 % 1017,1 hPa 0,0 mm 0,0 km/h (0 Bft) NW 315 0 min 0 UV-I 0 W/m 1,6 km/h (1 Bft)
06.08.2010 21:20 19,0 C 58 % 1017,2 hPa 0,0 mm 0,0 km/h (0 Bft) N 0 0 min 0 UV-I 0 W/m 0,0 km/h (0 Bft)
06.08.2010 21:30 18,3 C 62 % 1017,2 hPa 0,0 mm 0,0 km/h (0 Bft) N 0 0 min 0 UV-I 0 W/m 0,0 km/h (0 Bft)
06.08.2010 21:40 17,8 C 64 % 1017,2 hPa 0,0 mm 0,0 km/h (0 Bft) N 0 0 min 0 UV-I 0 W/m 0,0 km/h (0 Bft)
06.08.2010 21:50 17,3 C 66 % 1017,2 hPa 0,0 mm 0,0 km/h (0 Bft) N 0 0 min 0 UV-I 0 W/m 0,0 km/h (0 Bft)
06.08.2010 22:00 17,1 C 66 % 1017,2 hPa 0,0 mm 0,0 km/h (0 Bft) N 0 0 min 0 UV-I 0 W/m 0,0 km/h (0 Bft)
06.08.2010 22:10 16,8 C 69 % 1017,1 hPa 0,0 mm 0,0 km/h (0 Bft) N 0 0 min 0 UV-I 0 W/m 0,0 km/h (0 Bft)
06.08.2010 22:20 16,5 C 70 % 1017,2 hPa 0,0 mm 0,0 km/h (0 Bft) N 0 0 min 0 UV-I 0 W/m 0,0 km/h (0 Bft)
06.08.2010 22:30 16,3 C 71 % 1017,3 hPa 0,0 mm 0,0 km/h (0 Bft) N 0 0 min 0 UV-I 0 W/m 0,0 km/h (0 Bft)
06.08.2010 22:40 16,1 C 71 % 1017,4 hPa 0,0 mm 0,0 km/h (0 Bft) N 0 0 min 0 UV-I 0 W/m 0,0 km/h (0 Bft)
06.08.2010 22:50 15,7 C 73 % 1017,5 hPa 0,0 mm 0,0 km/h (0 Bft) N 0 0 min 0 UV-I 0 W/m 0,0 km/h (0 Bft)
06.08.2010 23:00 15,5 C 73 % 1017,6 hPa 0,0 mm 0,0 km/h (0 Bft) N 0 0 min 0 UV-I 0 W/m 0,0 km/h (0 Bft)
06.08.2010 23:10 15,1 C 75 % 1017,6 hPa 0,0 mm 0,0 km/h (0 Bft) N 0 0 min 0 UV-I 0 W/m 0,0 km/h (0 Bft)
06.08.2010 23:20 14,9 C 77 % 1017,8 hPa 0,0 mm 0,0 km/h (0 Bft) NW 315 0 min 0 UV-I 0 W/m 3,2 km/h (1 Bft)
06.08.2010 23:30 15,0 C 76 % 1017,8 hPa 0,0 mm 0,0 km/h (0 Bft) N 0 0 min 0 UV-I 0 W/m 0,0 km/h (0 Bft)
06.08.2010 23:40 15,1 C 76 % 1017,8 hPa 0,0 mm 0,0 km/h (0 Bft) N 0 0 min 0 UV-I 0 W/m 0,0 km/h (0 Bft)
06.08.2010 23:50 14,9 C 76 % 1017,7 hPa 0,0 mm 0,0 km/h (0 Bft) NW 315 0 min 0 UV-I 0 W/m 1,6 km/h (1 Bft)
_ Min-Zeit 06:40 16:40 00:00 - 00:10 - - - - - 05:50
Minimum _ 13,4 C 42 % 1012,4 hPa - 0,0 km/h (0 Bft) - - - - - 0,0 km/h (0 Bft)
_ Max-Zeit 17:40 07:00 23:20 00:00 16:50 - - 08:20 12:30 12:50 12:00
Maximum _ 23,4 C 90 % 1017,8 hPa 0,0 mm 6,3 km/h
SW (2 Bft)
- - 10 min 6 UV-I 1069 W/m 17,7 km/h
W (3 Bft)
Durchschnitt _ 17,7 C 68 % 1015,5 hPa #0,0 mm 1,4 km/h (1 Bft) W - #10:40 h 3 UV-I 423 W/m 6,4 km/h (2 Bft)